Terminal Aerodrome Forecast
Issued by NWS

Home | Current Version | Previous Version | Text Only | Print | Product List | Glossary On
Versions: 1 2 3 4 5 6 7 8 9 10 11 12 13 14 15 16
000
FTUS43 KICT 231700
TAFHUT
TAF
KHUT 231733Z 2318/2418 19014KT P6SM SKC
     FM231900 19018G26KT P6SM SKC
     FM240100 17013KT P6SM SCT100
     FM241500 19014G20KT P6SM SCT100=

USA.gov is the U.S. government's official web portal to all federal, state and local government web resources and services.